createdAt,value
2022-07-25T00:00:00.000Z,17.29
2022-07-25T00:15:00.000Z,17.15
2022-07-25T00:30:00.000Z,17.47
2022-07-25T00:45:00.000Z,17.35
2022-07-25T01:00:00.000Z,17.21
2022-07-25T01:15:00.000Z,17.15
2022-07-25T01:30:00.000Z,17.6
2022-07-25T01:45:00.000Z,16.76
2022-07-25T02:00:00.000Z,17.2
2022-07-25T02:15:00.000Z,17.33
2022-07-25T02:30:00.000Z,17.31
2022-07-25T02:45:00.000Z,17.88
2022-07-25T03:00:00.000Z,17.88
2022-07-25T03:15:00.000Z,18.25
2022-07-25T03:30:00.000Z,18.86
2022-07-25T03:45:00.000Z,18.99
2022-07-25T04:00:00.000Z,17.48
2022-07-25T04:15:00.000Z,18
2022-07-25T04:30:00.000Z,18.33
2022-07-25T04:45:00.000Z,17.44
2022-07-25T05:00:00.000Z,16.61
2022-07-25T05:15:00.000Z,15.68
2022-07-25T05:30:00.000Z,15.32
2022-07-25T05:45:00.000Z,14.56
2022-07-25T06:00:00.000Z,14.16
2022-07-25T06:15:00.000Z,13.71
2022-07-25T06:30:00.000Z,14.19
2022-07-25T06:45:00.000Z,13.12
2022-07-25T07:00:00.000Z,11.74
2022-07-25T07:15:00.000Z,11.21
2022-07-25T07:30:00.000Z,11.15
2022-07-25T07:45:00.000Z,11.32
2022-07-25T08:00:00.000Z,10.67
2022-07-25T08:15:00.000Z,10.59
2022-07-25T08:30:00.000Z,10.41
2022-07-25T08:45:00.000Z,10.06
2022-07-25T09:00:00.000Z,10.74
2022-07-25T09:15:00.000Z,10.93
2022-07-25T09:30:00.000Z,11.94
2022-07-25T09:45:00.000Z,12.22
2022-07-25T10:00:00.000Z,11.96
2022-07-25T10:15:00.000Z,11.99
2022-07-25T10:30:00.000Z,11.89
2022-07-25T10:45:00.000Z,11.82
2022-07-25T11:00:00.000Z,11.67
2022-07-25T11:15:00.000Z,11.42
2022-07-25T11:30:00.000Z,10.94
2022-07-25T11:45:00.000Z,10.42
2022-07-25T12:00:00.000Z,9.85
2022-07-25T12:15:00.000Z,8.4
2022-07-25T12:30:00.000Z,8.69
2022-07-25T12:45:00.000Z,8.66
2022-07-25T13:00:00.000Z,8.76
2022-07-25T13:15:00.000Z,8.39
2022-07-25T13:30:00.000Z,8.88
2022-07-25T13:45:00.000Z,8.46
2022-07-25T14:00:00.000Z,8.51
2022-07-25T14:15:00.000Z,8.21
2022-07-25T14:30:00.000Z,8.69
2022-07-25T14:45:00.000Z,8.8
2022-07-25T15:00:00.000Z,8.47
2022-07-25T15:15:00.000Z,8.34
2022-07-25T15:30:00.000Z,8.99
2022-07-25T15:45:00.000Z,8.6
2022-07-25T16:00:00.000Z,8
2022-07-25T16:15:00.000Z,7.45
2022-07-25T16:30:00.000Z,8.44
2022-07-25T16:45:00.000Z,8.8
2022-07-25T17:00:00.000Z,7.39
2022-07-25T17:15:00.000Z,7.94
2022-07-25T17:30:00.000Z,8.87
2022-07-25T17:45:00.000Z,8.69
2022-07-25T18:00:00.000Z,9.94
2022-07-25T18:15:00.000Z,11.06
2022-07-25T18:30:00.000Z,12.21
2022-07-25T18:45:00.000Z,18.36
2022-07-25T19:00:00.000Z,11.91
2022-07-25T19:15:00.000Z,14.4
2022-07-25T19:30:00.000Z,13.02
2022-07-25T19:45:00.000Z,12.15
2022-07-25T20:00:00.000Z,11.52
2022-07-25T20:15:00.000Z,14.93
2022-07-25T20:30:00.000Z,10.54
2022-07-25T20:45:00.000Z,10.96
2022-07-25T21:00:00.000Z,10.98
2022-07-25T21:15:00.000Z,10.56
2022-07-25T21:30:00.000Z,10.28
2022-07-25T21:45:00.000Z,9.66
2022-07-25T22:00:00.000Z,9.27
2022-07-25T22:15:00.000Z,10.52
2022-07-25T22:30:00.000Z,10.93
2022-07-25T22:45:00.000Z,10.25
2022-07-25T23:00:00.000Z,10.45
2022-07-25T23:15:00.000Z,10.69
2022-07-25T23:30:00.000Z,10.74
2022-07-25T23:45:00.000Z,11.29
